Time;durP1;ratioP1;P1;durP2;ratioP2;P2;SDS_P1;SDS_P2;PMS_P1;PMS_P2;Temp;Humidity;BMP_temperature;BMP_pressure;BME280_temperature;BME280_humidity;BME280_pressure;Samples;Min_cycle;Max_cycle;Signal;HPM_P1;HPM_P2
2021/12/21 00:01:52;;;;;;;17.07;7.27;;;;;;;0.42;96.25;102831.66;5093802;28;20108;-36
2021/12/21 00:04:18;;;;;;;17.23;7.00;;;;;;;0.46;97.51;102833.97;5094014;28;20024;-36
2021/12/21 00:06:44;;;;;;;13.90;6.27;;;;;;;0.49;97.95;102825.75;5094193;28;20036;-36
2021/12/21 00:09:09;;;;;;;13.98;6.55;;;;;;;0.39;96.84;102823.88;5094660;28;20031;-36
2021/12/21 00:11:35;;;;;;;16.50;6.47;;;;;;;0.44;97.88;102825.25;5094376;28;20085;-36
2021/12/21 00:21:38;;;;;;;19.47;7.60;;;;;;;0.13;96.12;102823.19;5093147;28;20044;-36
2021/12/21 00:24:12;;;;;;;13.40;6.57;;;;;;;0.20;97.43;102821.78;5094167;28;20024;-36
2021/12/21 00:26:37;;;;;;;12.65;6.28;;;;;;;0.23;98.39;102813.56;5094088;28;20081;-36
2021/12/21 00:29:03;;;;;;;13.15;5.47;;;;;;;0.20;98.74;102812.00;5093554;28;20448;-36
2021/12/21 00:31:37;;;;;;;13.52;6.57;;;;;;;0.11;98.13;102803.84;5093711;28;20028;-36
2021/12/21 00:34:04;;;;;;;15.90;6.97;;;;;;;0.01;97.25;102810.81;5094032;28;20035;-36
2021/12/21 00:36:30;;;;;;;17.38;6.85;;;;;;;0.00;98.31;102799.34;5093915;28;20357;-36
2021/12/21 00:38:57;;;;;;;17.92;6.55;;;;;;;-0.06;97.97;102791.78;5093454;28;20020;-36
2021/12/21 00:41:25;;;;;;;17.75;7.03;;;;;;;-0.02;97.95;102811.88;5093761;28;20073;-36
2021/12/21 00:43:51;;;;;;;18.42;7.85;;;;;;;-0.05;98.32;102807.66;5093932;28;20036;-36
2021/12/21 00:46:16;;;;;;;;;;;;;;;0.05;97.80;102802.50;5094220;28;20027;-36
2021/12/21 00:48:50;;;;;;;13.50;6.10;;;;;;;-0.22;97.43;102788.56;5093258;28;20261;-36
2021/12/21 00:51:17;;;;;;;13.75;6.47;;;;;;;-0.22;97.50;102807.19;5093766;28;20119;-36
2021/12/21 00:53:43;;;;;;;15.52;6.50;;;;;;;-0.22;98.23;102797.41;5093370;28;20487;-37
2021/12/21 00:56:08;;;;;;;14.60;6.32;;;;;;;-0.20;98.56;102808.75;5093257;28;20054;-36
2021/12/21 00:58:34;;;;;;;16.77;7.10;;;;;;;-0.27;97.74;102805.72;5093673;28;20447;-36
2021/12/21 01:01:04;;;;;;;13.93;6.23;;;;;;;-0.21;98.73;102801.75;5093319;28;20477;-36
2021/12/21 01:03:30;;;;;;;13.05;6.95;;;;;;;-0.50;97.25;102787.94;5093251;28;20036;-36
2021/12/21 01:06:09;;;;;;;12.82;6.63;;;;;;;-0.43;96.67;102802.47;5093621;28;20115;-36
2021/12/21 01:08:46;;;;;;;12.95;5.90;;;;;;;-0.37;98.38;102810.00;5093292;28;20030;-36
2021/12/21 01:11:21;;;;;;;16.90;7.05;;;;;;;-0.47;97.41;102811.63;5093301;28;20032;-36
2021/12/21 01:16:32;;;;;;;17.73;6.75;;;;;;;-0.59;97.31;102788.59;5092979;28;20392;-36
2021/12/21 01:21:31;;;;;;;13.85;6.47;;;;;;;-0.74;97.17;102789.69;5093182;28;20043;-36
2021/12/21 01:24:17;;;;;;;17.20;6.25;;;;;;;-0.65;97.82;102803.16;5093413;28;20110;-36
2021/12/21 01:32:17;;;;;;;16.58;7.53;;;;;;;-0.48;99.07;102807.28;5093176;28;20154;-36
2021/12/21 01:34:59;;;;;;;14.18;6.72;;;;;;;-0.68;98.79;102754.69;5097244;28;20034;-36
2021/12/21 01:40:16;;;;;;;15.25;6.07;;;;;;;-0.45;99.92;102788.44;5097229;28;20040;-36
2021/12/21 01:50:59;;;;;;;21.90;9.30;;;;;;;-0.73;96.84;102770.13;5035154;28;20138;-36
2021/12/21 01:53:25;;;;;;;16.63;6.88;;;;;;;-0.62;97.42;102783.50;5034814;28;20061;-36
2021/12/21 01:55:51;;;;;;;16.83;7.00;;;;;;;-0.58;98.21;102787.66;5034232;28;20038;-36
2021/12/21 01:58:16;;;;;;;16.80;6.97;;;;;;;-0.51;99.27;102786.22;5034272;28;20030;-36
2021/12/21 02:00:41;;;;;;;13.00;6.83;;;;;;;-0.56;99.18;102786.56;5034107;28;20319;-36
2021/12/21 02:03:07;;;;;;;17.73;6.90;;;;;;;-0.60;97.86;102789.56;5034661;28;20124;-36
2021/12/21 02:05:33;;;;;;;14.63;6.77;;;;;;;-0.73;97.02;102775.44;5034117;28;20252;-36
2021/12/21 02:07:58;;;;;;;16.80;7.00;;;;;;;-0.95;96.77;102747.75;5034052;28;20040;-36
2021/12/21 02:10:24;;;;;;;14.77;6.80;;;;;;;-0.72;97.23;102779.81;5034428;28;20046;-36
2021/12/21 02:12:49;;;;;;;15.70;6.93;;;;;;;-0.66;98.45;102774.06;5034402;28;20454;-36
2021/12/21 02:15:15;;;;;;;13.07;6.30;;;;;;;-0.52;99.79;102771.25;5034304;28;20059;-36
2021/12/21 02:18:07;;;;;;;17.92;6.60;;;;;;;-0.75;98.05;102769.41;5033886;28;20103;-36
2021/12/21 02:28:00;;;;;;;14.88;6.45;;;;;;;-0.73;99.28;102759.50;5096222;28;20036;-36
2021/12/21 02:30:26;;;;;;;12.85;6.70;;;;;;;-0.72;99.26;102761.22;5096480;28;20032;-36
2021/12/21 02:32:53;;;;;;;15.98;7.45;;;;;;;-0.73;98.59;102765.69;5095971;28;20032;-36
2021/12/21 02:35:19;;;;;;;18.95;7.40;;;;;;;-0.75;98.76;102767.59;5096092;28;20028;-36
2021/12/21 02:37:45;;;;;;;12.82;6.90;;;;;;;-0.83;99.38;102751.34;5095708;28;20030;-36
2021/12/21 02:40:11;;;;;;;15.65;7.28;;;;;;;-0.86;99.10;102756.91;5096029;28;20032;-36
2021/12/21 02:42:36;;;;;;;17.75;7.22;;;;;;;-0.77;98.66;102772.19;5096461;28;20093;-36
2021/12/21 02:45:03;;;;;;;16.60;7.17;;;;;;;-1.02;98.42;102732.38;5095060;28;20028;-35
2021/12/21 02:47:29;;;;;;;18.45;8.13;;;;;;;-0.89;98.66;102752.63;5095938;28;20280;-36
2021/12/21 02:49:54;;;;;;;16.33;7.50;;;;;;;-0.88;96.64;102759.66;5095797;28;20039;-36
2021/12/21 02:52:19;;;;;;;15.70;7.03;;;;;;;-0.86;97.32;102763.06;5095986;28;20475;-35
2021/12/21 02:54:45;;;;;;;13.67;6.97;;;;;;;-0.89;97.87;102762.41;5096036;28;20383;-36
2021/12/21 02:57:10;;;;;;;17.37;7.50;;;;;;;-0.93;98.53;102742.34;5096265;28;20035;-36
2021/12/21 02:59:35;;;;;;;14.20;6.63;;;;;;;-0.83;98.58;102756.66;5095718;28;20038;-35
2021/12/21 03:02:01;;;;;;;14.10;7.53;;;;;;;-0.87;98.95;102755.19;5095712;28;20020;-35
2021/12/21 03:04:26;;;;;;;18.60;7.17;;;;;;;-0.96;98.48;102745.22;5095737;28;20020;-36
2021/12/21 03:11:56;;;;;;;15.30;7.53;;;;;;;-1.05;97.28;102747.56;5095793;28;20036;-36
2021/12/21 03:14:25;;;;;;;20.95;7.63;;;;;;;-1.21;98.58;102711.59;5095533;28;20388;-36
2021/12/21 03:16:52;;;;;;;17.08;6.93;;;;;;;-1.10;98.71;102736.44;5095255;28;20032;-36
2021/12/21 03:19:17;;;;;;;14.50;6.68;;;;;;;-0.98;98.53;102745.31;5095652;28;20107;-36
2021/12/21 03:21:43;;;;;;;11.87;6.37;;;;;;;-1.01;99.42;102731.44;5094752;28;20455;-36
2021/12/21 03:24:09;;;;;;;17.57;6.77;;;;;;;-1.01;98.49;102748.22;5095629;28;20372;-36
2021/12/21 03:26:35;;;;;;;18.40;7.55;;;;;;;-1.13;97.08;102749.06;5095082;28;20380;-36
2021/12/21 03:29:02;;;;;;;14.15;6.38;;;;;;;-1.07;97.83;102744.19;5095295;28;20104;-36
2021/12/21 03:31:27;;;;;;;15.50;7.07;;;;;;;-1.11;98.29;102739.19;5094955;28;20039;-36
2021/12/21 03:33:52;;;;;;;13.80;7.37;;;;;;;-1.08;99.07;102741.63;5095150;28;20028;-36
2021/12/21 03:36:18;;;;;;;12.80;6.60;;;;;;;-1.08;99.36;102742.47;5094907;28;20118;-36
2021/12/21 03:38:52;;;;;;;17.48;7.90;;;;;;;-1.08;98.66;102739.81;5095304;28;20496;-35
2021/12/21 03:41:19;;;;;;;16.02;7.80;;;;;;;-1.33;97.34;102719.44;5095381;28;20024;-35
2021/12/21 03:43:44;;;;;;;17.27;7.68;;;;;;;-1.14;98.77;102739.41;5095390;28;20020;-36
2021/12/21 03:46:12;;;;;;;18.75;7.82;;;;;;;-1.26;98.81;102733.16;5095408;28;20502;-35
2021/12/21 03:48:41;;;;;;;19.63;8.27;;;;;;;-1.31;97.40;102740.59;5094627;28;20032;-35
2021/12/21 03:51:08;;;;;;;18.73;8.18;;;;;;;-1.47;98.20;102701.00;5094727;28;20032;-36
2021/12/21 03:53:33;;;;;;;15.30;8.23;;;;;;;-1.22;98.76;102731.13;5095231;28;20468;-35
2021/12/21 03:56:36;;;;;;;17.08;9.30;;;;;;;-1.22;98.91;102733.78;5094371;28;20040;-35
2021/12/21 03:58:45;;;;;;;16.30;6.90;;;;;;;-1.20;98.44;102731.88;5094588;28;20050;-36
2021/12/21 04:01:10;;;;;;;18.88;8.05;;;;;;;-1.35;98.67;102734.66;5094309;28;20028;-36
2021/12/21 04:03:36;;;;;;;18.47;8.07;;;;;;;-1.23;99.06;102738.25;5094160;28;20067;-36
2021/12/21 04:06:03;;;;;;;19.77;8.05;;;;;;;-1.26;99.54;102741.13;5094313;28;20020;-36
2021/12/21 04:08:28;;;;;;;14.63;7.97;;;;;;;-1.27;98.70;102736.75;5094740;28;20384;-35
2021/12/21 04:10:54;;;;;;;23.43;9.20;;;;;;;-1.32;98.41;102734.44;5094245;28;20024;-36
2021/12/21 04:13:19;;;;;;;15.97;8.43;;;;;;;-1.43;98.09;102726.38;5094147;28;20266;-36
2021/12/21 04:15:49;;;;;;;17.27;8.77;;;;;;;-1.52;96.07;102737.63;5094418;28;20057;-35
2021/12/21 04:18:16;;;;;;;16.50;8.25;;;;;;;-1.49;98.35;102725.94;5093715;28;20061;-35
2021/12/21 04:20:42;;;;;;;24.00;9.43;;;;;;;-1.54;99.03;102709.50;5094714;28;20455;-36
2021/12/21 04:23:07;;;;;;;18.87;8.70;;;;;;;-1.54;99.06;102717.47;5093938;28;20111;-36
2021/12/21 04:25:34;;;;;;;18.23;8.75;;;;;;;-1.44;99.30;102723.81;5093877;28;20384;-35
2021/12/21 04:28:00;;;;;;;17.65;8.63;;;;;;;-1.52;97.63;102740.25;5094365;28;20035;-36
2021/12/21 04:30:26;;;;;;;16.10;7.97;;;;;;;-1.46;98.05;102741.69;5094610;28;20176;-36
2021/12/21 04:32:51;;;;;;;18.70;8.48;;;;;;;-1.45;99.15;102738.91;5093530;28;20143;-36
2021/12/21 04:35:19;;;;;;;16.80;8.23;;;;;;;-1.31;99.92;102736.13;5093818;28;20158;-35
2021/12/21 04:37:54;;;;;;;20.88;8.45;;;;;;;-1.24;100.00;102733.03;5093610;28;20106;-35
2021/12/21 04:40:24;;;;;;;18.20;7.82;;;;;;;-1.39;99.75;102733.16;5094002;28;20506;-36
2021/12/21 04:42:49;;;;;;;20.98;9.05;;;;;;;-1.70;97.77;102696.47;5094057;28;20380;-36
2021/12/21 04:45:15;;;;;;;16.98;8.80;;;;;;;-1.45;97.75;102730.09;5093885;28;20032;-38
2021/12/21 04:47:40;;;;;;;16.77;7.97;;;;;;;-1.42;98.16;102721.91;5093815;28;20020;-35
2021/12/21 04:50:06;;;;;;;18.07;8.40;;;;;;;-1.45;98.27;102717.69;5093614;28;20020;-35
2021/12/21 04:52:32;;;;;;;15.45;8.90;;;;;;;-1.49;99.77;102687.00;5093413;28;20032;-35
2021/12/21 04:54:57;;;;;;;15.53;8.37;;;;;;;-1.36;99.94;102722.34;5094106;28;20028;-35
2021/12/21 04:57:23;;;;;;;21.70;9.43;;;;;;;-1.52;97.66;102728.81;5093413;28;20063;-35
2021/12/21 04:59:49;;;;;;;16.80;8.00;;;;;;;-1.46;98.27;102725.75;5093643;28;20027;-35
2021/12/21 05:02:14;;;;;;;21.17;8.53;;;;;;;-1.54;98.57;102730.72;5093665;28;20051;-36
2021/12/21 05:04:39;;;;;;;18.63;8.90;;;;;;;-1.53;98.72;102720.00;5092340;28;20040;-35
2021/12/21 05:07:05;;;;;;;21.53;9.03;;;;;;;-1.57;98.66;102708.75;5093616;28;20101;-35
2021/12/21 05:09:39;;;;;;;17.48;8.35;;;;;;;-1.47;99.32;102716.91;5093423;28;20391;-36
2021/12/21 05:12:07;;;;;;;18.73;9.05;;;;;;;-1.62;98.10;102708.22;5093485;28;20028;-36
2021/12/21 05:14:33;;;;;;;16.38;8.43;;;;;;;-1.50;97.98;102719.81;5093463;28;20039;-36
2021/12/21 05:16:58;;;;;;;20.42;9.32;;;;;;;-1.47;98.88;102716.06;5093221;28;20095;-35
2021/12/21 05:19:24;;;;;;;19.13;9.03;;;;;;;-1.45;99.32;102717.69;5093665;28;20524;-36
2021/12/21 05:21:49;;;;;;;22.00;9.57;;;;;;;-1.42;100.00;102724.56;5093065;28;20068;-36
2021/12/21 05:24:15;;;;;;;14.57;7.70;;;;;;;-1.40;99.63;102730.63;5093638;28;20016;-35
2021/12/21 05:26:40;;;;;;;19.33;9.43;;;;;;;-1.46;100.00;102721.28;5093095;28;20452;-35
2021/12/21 05:29:06;;;;;;;19.17;8.93;;;;;;;-1.67;97.61;102733.38;5093686;28;20069;-35
2021/12/21 05:31:32;;;;;;;17.92;8.27;;;;;;;-1.55;99.64;102724.56;5093556;28;20036;-35
2021/12/21 05:33:57;;;;;;;20.13;9.95;;;;;;;-1.72;99.01;102715.09;5093277;28;20110;-35
2021/12/21 05:36:23;;;;;;;17.77;8.63;;;;;;;-1.74;98.71;102716.19;5092989;28;20027;-35
2021/12/21 05:38:52;;;;;;;16.58;8.32;;;;;;;-1.59;99.05;102726.59;5092698;28;20024;-35
2021/12/21 05:41:25;;;;;;;17.48;8.25;;;;;;;-1.54;100.00;102734.22;5093056;28;20081;-35
2021/12/21 05:43:52;;;;;;;21.80;10.32;;;;;;;-1.73;97.83;102731.13;5093043;28;20376;-35
2021/12/21 05:46:17;;;;;;;22.13;10.10;;;;;;;-1.90;97.61;102714.59;5092476;28;20082;-35
2021/12/21 05:48:43;;;;;;;17.80;9.50;;;;;;;-1.81;97.28;102734.28;5092833;28;20405;-35
2021/12/21 05:51:08;;;;;;;20.27;9.10;;;;;;;-1.72;99.22;102725.72;5092825;28;20055;-35
2021/12/21 05:53:34;;;;;;;19.80;9.40;;;;;;;-1.62;99.88;102723.28;5091517;28;20274;-35
2021/12/21 05:55:59;;;;;;;21.10;9.67;;;;;;;-1.57;99.71;102729.13;5092869;28;20024;-35
2021/12/21 05:58:24;;;;;;;18.50;10.07;;;;;;;-1.67;98.34;102722.75;5091824;28;20032;-35
2021/12/21 06:00:50;;;;;;;16.83;8.83;;;;;;;-1.58;99.30;102732.75;5092588;28;20399;-35
2021/12/21 06:03:15;;;;;;;18.97;9.30;;;;;;;-1.57;99.20;102723.81;5093308;28;20087;-35
2021/12/21 06:05:40;;;;;;;22.73;10.77;;;;;;;-1.53;99.72;102735.06;5092939;28;20036;-35
2021/12/21 06:08:06;;;;;;;20.97;9.13;;;;;;;-1.58;99.17;102727.44;5092598;28;20367;-35
2021/12/21 06:10:36;;;;;;;18.00;9.50;;;;;;;-1.52;99.91;102729.66;5092585;28;20050;-35
2021/12/21 06:15:48;;;;;;;19.77;9.73;;;;;;;-1.64;98.91;102733.16;5092666;28;20039;-35
2021/12/21 06:26:13;;;;;;;16.45;8.55;;;;;;;-1.70;99.65;102721.19;5096386;28;20047;-34
2021/12/21 06:28:40;;;;;;;18.52;9.80;;;;;;;-1.76;98.10;102728.69;5095979;28;20460;-35
2021/12/21 06:31:05;;;;;;;19.90;9.35;;;;;;;-1.75;98.85;102719.78;5095754;28;20111;-35
2021/12/21 06:33:31;;;;;;;19.10;9.00;;;;;;;-1.57;100.00;102719.34;5095974;28;20063;-35
2021/12/21 06:35:57;;;;;;;22.02;8.52;;;;;;;-1.47;100.00;102724.88;5096452;28;20107;-35
2021/12/21 06:38:23;;;;;;;14.48;8.55;;;;;;;-1.65;100.00;102704.94;5096532;28;20451;-35
2021/12/21 06:40:49;;;;;;;19.48;8.38;;;;;;;-1.57;100.00;102706.09;5095809;28;20024;-34
2021/12/21 06:43:15;;;;;;;20.88;9.52;;;;;;;-1.69;99.25;102716.72;5096020;28;20023;-35
2021/12/21 06:45:51;;;;;;;19.17;9.25;;;;;;;-1.58;99.99;102728.28;5095657;28;20020;-34
2021/12/21 06:53:32;;;;;;;23.58;9.43;;;;;;;-1.67;99.35;102717.44;5095729;28;20039;-35
2021/12/21 06:55:57;;;;;;;16.57;8.40;;;;;;;-1.62;100.00;102724.13;5095689;28;20028;-35
2021/12/21 06:58:23;;;;;;;24.13;10.60;;;;;;;-1.59;99.80;102731.03;5095229;28;20386;-35
2021/12/21 07:00:50;;;;;;;18.88;9.02;;;;;;;-1.57;99.88;102731.78;5095459;28;20024;-35
2021/12/21 07:03:16;;;;;;;19.00;9.70;;;;;;;-1.51;100.00;102727.84;5095333;28;20123;-35
2021/12/21 07:05:41;;;;;;;24.60;9.23;;;;;;;-1.49;100.00;102725.94;5095714;28;20078;-34
2021/12/21 07:08:11;;;;;;;17.52;9.27;;;;;;;-1.38;100.00;102731.34;5095302;28;20478;-34
2021/12/21 07:10:38;;;;;;;22.88;10.48;;;;;;;-1.64;100.00;102709.28;5095286;28;20138;-34
2021/12/21 07:18:46;;;;;;;18.17;9.25;;;;;;;-1.64;100.00;102741.97;5072658;28;20151;-36
2021/12/21 07:21:11;;;;;;;15.07;8.87;;;;;;;-1.74;100.00;102721.50;5056278;28;20037;-35
2021/12/21 07:23:36;;;;;;;19.27;9.70;;;;;;;-1.76;100.00;102737.50;5072399;28;20095;-34
2021/12/21 07:26:02;;;;;;;18.13;9.40;;;;;;;-1.83;99.81;102726.47;5072800;28;20163;-34
2021/12/21 07:28:27;;;;;;;14.07;9.40;;;;;;;-1.68;100.00;102742.28;5072345;28;20024;-34
2021/12/21 07:30:52;;;;;;;22.07;9.43;;;;;;;-1.86;98.84;102745.22;5072246;28;20484;-35
2021/12/21 07:33:18;;;;;;;19.27;8.80;;;;;;;-1.80;99.53;102751.94;5072075;28;20075;-35
2021/12/21 07:35:44;;;;;;;17.65;8.88;;;;;;;-1.68;100.00;102742.28;5072049;28;20139;-35
2021/12/21 07:38:10;;;;;;;20.23;9.13;;;;;;;-1.73;100.00;102745.25;5072135;28;20047;-35
2021/12/21 07:40:37;;;;;;;19.75;9.48;;;;;;;-1.66;100.00;102740.38;5072236;28;20032;-35
2021/12/21 07:43:02;;;;;;;21.02;10.02;;;;;;;-1.87;100.00;102717.00;5071998;28;20596;-35
2021/12/21 07:45:28;;;;;;;21.35;9.85;;;;;;;-1.88;98.99;102751.59;5072355;28;20037;-35
2021/12/21 07:47:53;;;;;;;18.50;9.57;;;;;;;-1.98;98.36;102740.75;5071829;28;20032;-35
2021/12/21 07:50:20;;;;;;;21.00;10.80;;;;;;;-1.99;98.57;102744.38;5072355;28;20035;-35
2021/12/21 07:52:47;;;;;;;21.10;10.55;;;;;;;-1.92;98.29;102763.34;5094017;28;20367;-35
2021/12/21 07:55:12;;;;;;;;;;;;;;;-1.78;99.61;102763.28;5095086;28;20202;-35
2021/12/21 07:57:38;;;;;;;20.95;9.60;;;;;;;-1.79;99.62;102761.59;5092892;28;20425;-35
2021/12/21 08:00:06;;;;;;;21.65;10.13;;;;;;;-1.90;98.66;102758.81;5094537;28;20103;-35
2021/12/21 08:02:32;;;;;;;20.80;10.07;;;;;;;-1.91;97.93;102765.91;5093753;28;20020;-34
2021/12/21 08:04:58;;;;;;;18.30;10.85;;;;;;;-1.96;98.49;102751.25;5095195;28;20048;-35
2021/12/21 08:07:29;;;;;;;24.35;10.50;;;;;;;-1.81;99.21;102768.78;5094509;28;20107;-36
2021/12/21 08:09:55;;;;;;;22.48;10.55;;;;;;;-1.76;100.00;102766.66;5094263;28;20476;-35
2021/12/21 08:12:21;;;;;;;16.98;9.85;;;;;;;-1.70;100.00;102760.97;5093768;28;20105;-35
2021/12/21 08:14:48;;;;;;;;;;;;;;;-1.63;100.00;102758.72;5095129;28;20028;-35
2021/12/21 08:17:15;;;;;;;17.58;8.90;;;;;;;-1.74;99.79;102753.31;5093683;28;19967;-35
2021/12/21 08:19:40;;;;;;;17.60;10.48;;;;;;;-1.71;100.00;102755.75;5093723;28;20035;-34
2021/12/21 08:22:06;;;;;;;27.93;12.43;;;;;;;-1.71;99.33;102761.03;5093830;28;20415;-35
2021/12/21 08:24:33;;;;;;;23.93;10.73;;;;;;;-1.61;100.00;102756.81;5094880;28;20028;-35
2021/12/21 08:26:59;;;;;;;28.27;13.02;;;;;;;-1.52;100.00;102761.50;5094053;28;20331;-35
2021/12/21 08:29:26;;;;;;;21.35;10.70;;;;;;;-1.45;100.00;102753.97;5094421;28;20032;-35
2021/12/21 08:31:51;;;;;;;22.55;11.38;;;;;;;-1.58;100.00;102756.63;5094038;28;20513;-34
2021/12/21 08:34:16;;;;;;;21.93;11.30;;;;;;;-1.67;100.00;102717.44;5093895;28;20027;-35
2021/12/21 08:36:42;;;;;;;23.87;11.33;;;;;;;-1.45;99.79;102762.78;5094105;28;20028;-35
2021/12/21 08:39:08;;;;;;;22.30;11.80;;;;;;;-1.36;100.00;102758.66;5094500;28;20028;-35
2021/12/21 08:41:39;;;;;;;24.80;12.20;;;;;;;-1.27;100.00;102747.38;5093719;28;20031;-35
2021/12/21 08:44:05;;;;;;;21.60;12.07;;;;;;;-1.17;100.00;102760.84;5093186;28;20089;-35
2021/12/21 08:46:30;;;;;;;27.93;12.47;;;;;;;-1.21;99.74;102762.91;5094051;28;20114;-35
2021/12/21 08:48:56;;;;;;;19.40;11.20;;;;;;;-1.18;99.78;102765.31;5094567;28;20350;-35
2021/12/21 08:51:21;;;;;;;21.13;11.13;;;;;;;-1.11;99.32;102774.56;5093487;28;20035;-35
2021/12/21 08:53:46;;;;;;;23.90;12.00;;;;;;;-1.20;98.45;102763.75;5093367;28;20038;-35
2021/12/21 08:56:12;;;;;;;22.53;11.67;;;;;;;-0.96;98.37;102777.09;5094049;28;20066;-35
2021/12/21 08:58:37;;;;;;;24.50;12.13;;;;;;;-1.12;97.54;102764.06;5093573;28;20035;-35
2021/12/21 09:01:03;;;;;;;23.30;12.57;;;;;;;-1.04;98.21;102780.28;5093129;28;20032;-35
2021/12/21 09:03:30;;;;;;;25.40;11.93;;;;;;;-1.15;97.73;102772.22;5094351;28;20055;-35
2021/12/21 09:05:56;;;;;;;21.42;12.32;;;;;;;-0.90;98.08;102776.66;5093278;28;20537;-35
2021/12/21 09:08:21;;;;;;;;;;;;;;;-0.75;98.78;102780.88;5093642;28;20464;-35
2021/12/21 09:10:47;;;;;;;24.10;12.23;;;;;;;-0.69;98.31;102776.91;5093201;28;19919;-35
2021/12/21 09:13:12;;;;;;;25.83;12.38;;;;;;;-0.76;97.24;102779.19;5093821;28;20261;-35
2021/12/21 09:15:38;;;;;;;25.60;11.77;;;;;;;-0.74;96.68;102771.09;5093527;28;20090;-35
2021/12/21 09:18:05;;;;;;;22.17;13.07;;;;;;;-0.71;96.18;102781.50;5093439;28;20020;-35
2021/12/21 09:20:31;;;;;;;20.60;11.70;;;;;;;-0.66;98.17;102764.28;5093611;28;20060;-34
2021/12/21 09:22:57;;;;;;;;;;;;;;;-0.46;98.67;102784.09;5093406;28;20425;-34
2021/12/21 09:25:23;;;;;;;24.17;11.35;;;;;;;-0.36;99.46;102771.81;5093220;28;19951;-35
2021/12/21 09:27:49;;;;;;;21.08;11.32;;;;;;;-0.36;98.58;102776.28;5093240;28;20082;-35
2021/12/21 09:30:17;;;;;;;21.50;11.18;;;;;;;-0.07;99.91;102780.31;5093794;28;20032;-35
2021/12/21 09:32:43;;;;;;;23.83;11.68;;;;;;;-0.24;97.91;102769.22;5093124;28;20116;-35
2021/12/21 09:35:09;;;;;;;20.35;11.07;;;;;;;-0.11;99.68;102760.22;5092923;28;20452;-36
2021/12/21 09:37:35;;;;;;;18.85;10.50;;;;;;;-0.10;98.49;102763.72;5093425;28;20055;-35
2021/12/21 09:40:03;;;;;;;18.92;10.63;;;;;;;0.07;98.82;102763.31;5093338;28;20024;-35
2021/12/21 09:42:30;;;;;;;29.17;13.05;;;;;;;-0.17;96.54;102754.50;5093189;28;20028;-36
2021/12/21 09:44:58;;;;;;;25.48;12.63;;;;;;;-0.08;95.40;102764.47;5093507;28;20020;-35
2021/12/21 09:47:26;;;;;;;26.73;13.82;;;;;;;0.00;96.69;102751.47;5093046;28;20027;-36
2021/12/21 09:49:52;;;;;;;23.48;12.45;;;;;;;0.08;96.06;102766.81;5093484;28;20341;-35
2021/12/21 09:52:21;;;;;;;25.77;12.38;;;;;;;0.02;94.67;102761.97;5092705;28;20031;-36
2021/12/21 09:54:46;;;;;;;23.65;13.38;;;;;;;-0.02;93.67;102759.53;5095014;28;20028;-36
2021/12/21 09:57:16;;;;;;;27.83;13.85;;;;;;;0.08;96.11;102754.38;5097409;28;20043;-35
2021/12/21 09:59:42;;;;;;;27.25;14.05;;;;;;;0.06;95.59;102761.63;5096805;28;20020;-36
2021/12/21 10:02:08;;;;;;;25.17;13.45;;;;;;;-0.02;96.29;102740.91;5096887;28;20020;-36
2021/12/21 10:04:54;;;;;;;27.10;13.93;;;;;;;0.30;96.37;102758.09;5096364;28;20583;-36
2021/12/21 10:07:22;;;;;;;25.30;13.73;;;;;;;0.38;96.19;102756.50;5096810;28;20040;-36
2021/12/21 10:09:48;;;;;;;20.00;11.23;;;;;;;0.52;96.50;102760.78;5096950;28;20031;-36
2021/12/21 10:12:26;;;;;;;22.65;13.00;;;;;;;0.54;95.58;102760.66;5096508;28;20377;-36
2021/12/21 10:15:09;;;;;;;22.58;12.02;;;;;;;0.65;95.88;102764.19;5096628;28;20024;-36
2021/12/21 10:17:36;;;;;;;25.58;12.57;;;;;;;0.61;94.04;102756.56;5096547;28;20024;-36
2021/12/21 10:20:06;;;;;;;25.00;12.48;;;;;;;0.52;93.38;102742.97;5096807;28;20507;-36
2021/12/21 10:22:32;;;;;;;19.08;10.63;;;;;;;0.71;96.02;102745.06;5096668;28;20028;-36
2021/12/21 10:24:58;;;;;;;16.52;10.75;;;;;;;0.58;94.47;102715.03;5096502;28;20111;-36
2021/12/21 10:27:24;;;;;;;18.42;10.50;;;;;;;0.64;92.31;102738.53;5096569;28;20054;-36
2021/12/21 10:29:56;;;;;;;17.85;9.77;;;;;;;0.81;93.65;102731.88;5096625;28;20035;-36
2021/12/21 10:32:30;;;;;;;19.17;10.70;;;;;;;0.64;90.68;102727.03;5096262;28;20032;-36
2021/12/21 10:35:14;;;;;;;21.30;10.88;;;;;;;0.82;92.32;102743.38;5096498;28;20028;-36
2021/12/21 10:37:41;;;;;;;19.63;10.23;;;;;;;0.81;91.32;102729.22;5096743;28;20024;-36
2021/12/21 10:40:09;;;;;;;15.57;9.38;;;;;;;0.83;89.42;102735.28;5096081;28;20103;-35
2021/12/21 10:42:59;;;;;;;15.80;9.68;;;;;;;0.94;90.96;102737.09;5095979;28;20032;-36
2021/12/21 10:45:28;;;;;;;17.30;9.60;;;;;;;0.97;88.31;102737.66;5096729;28;20349;-36
2021/12/21 10:47:54;;;;;;;17.70;9.70;;;;;;;0.94;87.10;102737.09;5095920;28;20464;-36
2021/12/21 10:50:21;;;;;;;24.40;10.13;;;;;;;0.90;86.57;102740.97;5096202;28;20032;-36
2021/12/21 10:52:52;;;;;;;15.52;9.13;;;;;;;1.13;90.51;102737.31;5096084;28;20032;-36
2021/12/21 10:55:24;;;;;;;18.38;9.30;;;;;;;1.04;86.15;102738.06;5096055;28;20544;-36
2021/12/21 10:58:00;;;;;;;16.38;8.45;;;;;;;1.12;85.49;102735.59;5095770;28;20032;-36
2021/12/21 11:00:25;;;;;;;14.43;8.13;;;;;;;0.96;83.50;102711.16;5095674;28;20028;-36
2021/12/21 11:02:53;;;;;;;16.30;8.07;;;;;;;1.15;83.78;102737.19;5095847;28;20027;-36
2021/12/21 11:05:20;;;;;;;16.10;9.07;;;;;;;1.08;82.34;102734.19;5095344;28;20089;-36
2021/12/21 11:07:52;;;;;;;12.60;7.97;;;;;;;1.14;82.90;102728.34;5096194;28;20035;-36
2021/12/21 11:10:19;;;;;;;18.38;7.82;;;;;;;1.14;83.48;102715.03;5096020;28;20094;-36
2021/12/21 11:12:54;;;;;;;16.38;8.10;;;;;;;1.28;82.53;102725.41;5095401;28;20119;-36
2021/12/21 11:15:22;;;;;;;14.48;7.45;;;;;;;1.29;80.75;102727.09;5096196;28;20032;-40
2021/12/21 11:17:48;;;;;;;15.80;7.75;;;;;;;1.31;81.10;102712.81;5094895;28;20028;-37
2021/12/21 11:20:15;;;;;;;15.73;7.40;;;;;;;1.43;83.82;102720.66;5095271;28;20028;-36
2021/12/21 11:22:43;;;;;;;14.60;7.15;;;;;;;1.47;81.88;102707.94;5095118;28;20036;-36
2021/12/21 11:25:11;;;;;;;15.60;7.45;;;;;;;1.57;84.12;102702.69;5095366;28;20030;-36
2021/12/21 11:27:41;;;;;;;13.25;7.68;;;;;;;1.70;86.86;102690.84;5095815;28;20039;-36
2021/12/21 11:30:12;;;;;;;13.57;7.82;;;;;;;1.72;86.98;102669.41;5095292;28;20028;-36
2021/12/21 11:32:43;;;;;;;16.10;8.80;;;;;;;1.83;86.03;102682.69;5095555;28;20031;-36
2021/12/21 11:37:40;;;;;;;21.45;8.63;;;;;;;1.81;81.23;102668.63;5094900;28;20426;-36
2021/12/21 11:40:08;;;;;;;14.38;7.40;;;;;;;1.84;84.51;102659.53;5094570;28;20472;-36
2021/12/21 11:43:02;;;;;;;12.43;7.35;;;;;;;1.93;82.30;102666.75;5094665;28;20028;-36
2021/12/21 11:45:32;;;;;;;13.70;7.72;;;;;;;1.82;80.60;102659.66;5032364;28;20048;-36
2021/12/21 11:48:05;;;;;;;12.77;7.10;;;;;;;1.90;80.53;102667.84;5032221;28;20445;-36
2021/12/21 11:50:30;;;;;;;14.63;7.13;;;;;;;1.87;81.45;102653.94;5032944;28;20489;-36
2021/12/21 11:53:05;;;;;;;13.57;7.37;;;;;;;1.91;80.50;102655.38;5032156;28;20044;-36
2021/12/21 11:55:32;;;;;;;12.20;7.20;;;;;;;1.99;80.04;102661.72;5032753;28;22238;-36
2021/12/21 11:58:01;;;;;;;16.48;7.38;;;;;;;2.00;79.00;102659.91;5032738;28;20035;-36
2021/12/21 12:00:32;;;;;;;13.98;7.57;;;;;;;2.06;81.28;102654.91;5032494;28;20056;-36
2021/12/21 12:03:13;;;;;;;14.35;6.90;;;;;;;1.97;78.95;102644.16;5031964;28;20041;-36
2021/12/21 12:05:48;;;;;;;14.18;7.28;;;;;;;2.06;79.31;102662.06;5031953;28;20099;-36
2021/12/21 12:08:14;;;;;;;19.23;7.65;;;;;;;2.07;78.06;102661.09;5031901;28;20132;-36
2021/12/21 12:10:48;;;;;;;12.23;6.80;;;;;;;2.15;81.39;102661.28;5032060;28;20112;-36
2021/12/21 12:13:17;;;;;;;10.07;6.15;;;;;;;2.15;78.32;102647.94;5032044;28;20056;-36
2021/12/21 12:15:45;;;;;;;12.38;6.10;;;;;;;2.21;77.70;102655.41;5031998;28;20046;-36
2021/12/21 12:18:27;;;;;;;10.85;6.40;;;;;;;2.22;80.08;102645.59;5030783;28;20037;-36
2021/12/21 12:20:54;;;;;;;15.75;6.40;;;;;;;2.26;79.35;102642.53;5032396;28;20072;-36
2021/12/21 12:23:20;;;;;;;10.75;6.00;;;;;;;2.29;78.62;102642.25;5092259;28;20039;-36
2021/12/21 12:25:55;;;;;;;9.30;5.70;;;;;;;2.31;78.80;102640.28;5094073;28;20032;-36